AEF9201 EDDF-EGPH
Flight info
| Callsign | AEF9201 |
|---|---|
| Flight time | 1h 32m |
| Altitude | 34000 |
| Route | OBOKA3W OBOKA Z28 DIBIR DCT BUDIP DCT GODOS DCT AGPED |
| Aircraft | A320/M-SDE3FGHIRWY/LB1 |
Departure
| Time | 2026-05-07 07:45 |
|---|---|
| Airport | Frankfurt Main Airport (EDDF) |
Arrival
| Time | 2026-05-07 09:18 |
|---|---|
| Airport | Edinburgh Airport (EGPH) |
| Time | Latitude | Longitude | Altitude | Speed | Heading |
|---|---|---|---|---|---|
| 2026-05-07 06:18 | 50.02978 | 8.57686 | 356 ft | 0 kts | 25° |
| 2026-05-07 07:18 | 50.02977 | 8.57686 | 356 ft | 0 kts | 25° |
| 2026-05-07 07:29 | 50.02977 | 8.57685 | 356 ft | 0 kts | 25° |
| 2026-05-07 07:34 | 50.02967 | 8.57678 | 356 ft | 4 kts | 24° |
| 2026-05-07 07:34 | 50.02942 | 8.57662 | 355 ft | 4 kts | 19° |
| 2026-05-07 07:34 | 50.02916 | 8.57651 | 354 ft | 4 kts | 8° |
| 2026-05-07 07:35 | 50.02891 | 8.57651 | 362 ft | 4 kts | 328° |
| 2026-05-07 07:35 | 50.02883 | 8.57666 | 353 ft | 1 kts | 272° |
| 2026-05-07 07:35 | 50.02883 | 8.57671 | 362 ft | 0 kts | 272° |
| 2026-05-07 07:39 | 50.02883 | 8.57656 | 353 ft | 4 kts | 272° |
| 2026-05-07 07:40 | 50.02885 | 8.57597 | 357 ft | 7 kts | 272° |
| 2026-05-07 07:40 | 50.02902 | 8.57509 | 360 ft | 8 kts | 296° |
| 2026-05-07 07:40 | 50.02925 | 8.57436 | 355 ft | 7 kts | 296° |
| 2026-05-07 07:40 | 50.02952 | 8.57347 | 360 ft | 10 kts | 295° |
| 2026-05-07 07:41 | 50.02981 | 8.57247 | 355 ft | 11 kts | 294° |
| 2026-05-07 07:41 | 50.03016 | 8.57129 | 359 ft | 13 kts | 295° |
| 2026-05-07 07:41 | 50.03056 | 8.56995 | 353 ft | 13 kts | 295° |
| 2026-05-07 07:41 | 50.03132 | 8.56913 | 357 ft | 14 kts | 340° |
| 2026-05-07 07:42 | 50.03225 | 8.56860 | 358 ft | 13 kts | 340° |
| 2026-05-07 07:42 | 50.03286 | 8.56860 | 355 ft | 9 kts | 34° |
| 2026-05-07 07:42 | 50.03309 | 8.56933 | 356 ft | 7 kts | 70° |
| 2026-05-07 07:42 | 50.03334 | 8.57037 | 359 ft | 13 kts | 69° |
| 2026-05-07 07:43 | 50.03363 | 8.57159 | 356 ft | 11 kts | 70° |
| 2026-05-07 07:43 | 50.03388 | 8.57263 | 355 ft | 9 kts | 70° |
| 2026-05-07 07:43 | 50.03407 | 8.57340 | 361 ft | 7 kts | 69° |
| 2026-05-07 07:43 | 50.03426 | 8.57409 | 360 ft | 8 kts | 57° |
| 2026-05-07 07:44 | 50.03480 | 8.57426 | 360 ft | 10 kts | 342° |
| 2026-05-07 07:44 | 50.03538 | 8.57332 | 359 ft | 15 kts | 301° |
| 2026-05-07 07:44 | 50.03594 | 8.57180 | 362 ft | 16 kts | 322° |
| 2026-05-07 07:44 | 50.03630 | 8.57078 | 355 ft | 11 kts | 250° |
| 2026-05-07 07:45 | 50.03573 | 8.56845 | 356 ft | 47 kts | 250° |
| 2026-05-07 07:45 | 50.03377 | 8.56020 | 353 ft | 113 kts | 250° |
| 2026-05-07 07:45 | 50.03040 | 8.54606 | 357 ft | 163 kts | 249° |
| 2026-05-07 07:45 | 50.02652 | 8.52989 | 1067 ft | 155 kts | 251° |
| 2026-05-07 07:46 | 50.02277 | 8.51437 | 1828 ft | 151 kts | 252° |
| 2026-05-07 07:46 | 50.01716 | 8.49983 | 2304 ft | 171 kts | 223° |
| 2026-05-07 07:46 | 50.00568 | 8.49183 | 2580 ft | 197 kts | 197° |
| 2026-05-07 07:46 | 49.99198 | 8.48558 | 3025 ft | 210 kts | 199° |
| 2026-05-07 07:47 | 49.97809 | 8.47890 | 3825 ft | 209 kts | 199° |
| 2026-05-07 07:47 | 49.96418 | 8.47216 | 4572 ft | 211 kts | 200° |
| 2026-05-07 07:47 | 49.94986 | 8.46527 | 5131 ft | 225 kts | 199° |
| 2026-05-07 07:47 | 49.93414 | 8.45797 | 5576 ft | 244 kts | 199° |
| 2026-05-07 07:48 | 49.91833 | 8.44694 | 6061 ft | 259 kts | 219° |
| 2026-05-07 07:48 | 49.90675 | 8.42590 | 6689 ft | 264 kts | 246° |
| 2026-05-07 07:48 | 49.90299 | 8.39824 | 7480 ft | 265 kts | 275° |
| 2026-05-07 07:48 | 49.90846 | 8.37112 | 8290 ft | 268 kts | 303° |
| 2026-05-07 07:49 | 49.92161 | 8.35057 | 9103 ft | 272 kts | 321° |
| 2026-05-07 07:49 | 49.93668 | 8.33255 | 9927 ft | 274 kts | 321° |
| 2026-05-07 07:49 | 49.95206 | 8.31417 | 10484 ft | 288 kts | 321° |
| 2026-05-07 07:49 | 49.96859 | 8.29437 | 10722 ft | 312 kts | 321° |
| 2026-05-07 07:50 | 49.98633 | 8.27301 | 11013 ft | 331 kts | 321° |
| 2026-05-07 07:50 | 50.00475 | 8.25081 | 11606 ft | 338 kts | 321° |
| 2026-05-07 07:50 | 50.02346 | 8.22822 | 12280 ft | 343 kts | 321° |
| 2026-05-07 07:50 | 50.04238 | 8.20534 | 12958 ft | 347 kts | 321° |
| 2026-05-07 07:51 | 50.06150 | 8.18218 | 13629 ft | 350 kts | 321° |
| 2026-05-07 07:51 | 50.08080 | 8.15879 | 14279 ft | 353 kts | 321° |
| 2026-05-07 07:51 | 50.10027 | 8.13517 | 14911 ft | 357 kts | 321° |
| 2026-05-07 07:51 | 50.11993 | 8.11126 | 15531 ft | 360 kts | 321° |
| 2026-05-07 07:52 | 50.13974 | 8.08713 | 16145 ft | 363 kts | 322° |
| 2026-05-07 07:52 | 50.15972 | 8.06279 | 16742 ft | 366 kts | 322° |
| 2026-05-07 07:52 | 50.17985 | 8.03828 | 17329 ft | 369 kts | 322° |
| 2026-05-07 07:52 | 50.20013 | 8.01355 | 17890 ft | 372 kts | 322° |
| 2026-05-07 07:53 | 50.22029 | 7.98893 | 18424 ft | 374 kts | 322° |
| 2026-05-07 07:53 | 50.24089 | 7.96373 | 18948 ft | 378 kts | 322° |
| 2026-05-07 07:53 | 50.26164 | 7.93829 | 19442 ft | 381 kts | 322° |
| 2026-05-07 07:53 | 50.28259 | 7.91259 | 19941 ft | 384 kts | 322° |
| 2026-05-07 07:54 | 50.30300 | 7.88755 | 20413 ft | 387 kts | 322° |
| 2026-05-07 07:54 | 50.32430 | 7.86140 | 20863 ft | 391 kts | 322° |
| 2026-05-07 07:54 | 50.34579 | 7.83501 | 21322 ft | 394 kts | 322° |
| 2026-05-07 07:54 | 50.36742 | 7.80839 | 21776 ft | 397 kts | 322° |
| 2026-05-07 07:55 | 50.38918 | 7.78154 | 22199 ft | 400 kts | 321° |
| 2026-05-07 07:55 | 50.41111 | 7.75442 | 22625 ft | 403 kts | 321° |
| 2026-05-07 07:55 | 50.43318 | 7.72707 | 23046 ft | 406 kts | 321° |
| 2026-05-07 07:55 | 50.45538 | 7.69956 | 23462 ft | 408 kts | 321° |
| 2026-05-07 07:56 | 50.47776 | 7.67179 | 23841 ft | 411 kts | 321° |
| 2026-05-07 07:56 | 50.50030 | 7.64385 | 24214 ft | 414 kts | 321° |
| 2026-05-07 07:56 | 50.52294 | 7.61573 | 24599 ft | 416 kts | 321° |
| 2026-05-07 07:56 | 50.54574 | 7.58738 | 24967 ft | 419 kts | 321° |
| 2026-05-07 07:57 | 50.56864 | 7.55889 | 25325 ft | 421 kts | 321° |
| 2026-05-07 07:57 | 50.59169 | 7.53016 | 25680 ft | 423 kts | 321° |
| 2026-05-07 07:57 | 50.61482 | 7.50127 | 26039 ft | 425 kts | 321° |
| 2026-05-07 07:57 | 50.63801 | 7.47230 | 26407 ft | 426 kts | 321° |
| 2026-05-07 07:58 | 50.66103 | 7.44350 | 26733 ft | 428 kts | 321° |
| 2026-05-07 07:58 | 50.68441 | 7.41420 | 27062 ft | 430 kts | 321° |
| 2026-05-07 07:58 | 50.70790 | 7.38467 | 27393 ft | 432 kts | 321° |
| 2026-05-07 07:58 | 50.73124 | 7.35487 | 27695 ft | 434 kts | 318° |
| 2026-05-07 07:59 | 50.75231 | 7.32048 | 27986 ft | 436 kts | 309° |
| 2026-05-07 07:59 | 50.77026 | 7.28168 | 28281 ft | 438 kts | 306° |
| 2026-05-07 07:59 | 50.78790 | 7.24219 | 28554 ft | 440 kts | 306° |
| 2026-05-07 07:59 | 50.80560 | 7.20253 | 28824 ft | 442 kts | 306° |
| 2026-05-07 08:00 | 50.82337 | 7.16264 | 29079 ft | 444 kts | 306° |
| 2026-05-07 08:00 | 50.84117 | 7.12258 | 29338 ft | 446 kts | 306° |
| 2026-05-07 08:00 | 50.85907 | 7.08228 | 29605 ft | 447 kts | 306° |
| 2026-05-07 08:00 | 50.87617 | 7.04376 | 29849 ft | 448 kts | 306° |
| 2026-05-07 08:01 | 50.89465 | 7.00206 | 30197 ft | 448 kts | 306° |
| 2026-05-07 08:01 | 50.91250 | 6.96173 | 30533 ft | 447 kts | 305° |
| 2026-05-07 08:01 | 50.93032 | 6.92148 | 30843 ft | 447 kts | 305° |
| 2026-05-07 08:01 | 50.94792 | 6.88166 | 31134 ft | 447 kts | 305° |
| 2026-05-07 08:02 | 50.96578 | 6.84115 | 31442 ft | 447 kts | 305° |
| 2026-05-07 08:02 | 50.98356 | 6.80068 | 31753 ft | 447 kts | 305° |
| 2026-05-07 08:02 | 51.00131 | 6.76025 | 32061 ft | 446 kts | 304° |
| 2026-05-07 08:02 | 51.01908 | 6.71979 | 32357 ft | 446 kts | 304° |
| 2026-05-07 08:03 | 51.03679 | 6.67942 | 32651 ft | 446 kts | 304° |
| 2026-05-07 08:03 | 51.05454 | 6.63889 | 32919 ft | 446 kts | 304° |
| 2026-05-07 08:03 | 51.07222 | 6.59834 | 33206 ft | 446 kts | 304° |
| 2026-05-07 08:03 | 51.08990 | 6.55776 | 33500 ft | 446 kts | 304° |
| 2026-05-07 08:04 | 51.10755 | 6.51724 | 33785 ft | 446 kts | 304° |
| 2026-05-07 08:04 | 51.12517 | 6.47668 | 33981 ft | 446 kts | 304° |
| 2026-05-07 08:04 | 51.14277 | 6.43605 | 34024 ft | 446 kts | 304° |
| 2026-05-07 08:05 | 51.17793 | 6.35480 | 34029 ft | 445 kts | 304° |
| 2026-05-07 08:05 | 51.21309 | 6.27353 | 34037 ft | 445 kts | 304° |
| 2026-05-07 08:06 | 51.24801 | 6.19237 | 34036 ft | 444 kts | 304° |
| 2026-05-07 08:06 | 51.28272 | 6.11115 | 34036 ft | 444 kts | 303° |
| 2026-05-07 08:07 | 51.31650 | 6.02955 | 34045 ft | 444 kts | 303° |
| 2026-05-07 08:07 | 51.34990 | 5.94694 | 34049 ft | 444 kts | 303° |
| 2026-05-07 08:08 | 51.38662 | 5.86843 | 34049 ft | 443 kts | 315° |
| 2026-05-07 08:08 | 51.43412 | 5.80639 | 34049 ft | 443 kts | 322° |
| 2026-05-07 08:09 | 51.48256 | 5.74646 | 34048 ft | 443 kts | 322° |
| 2026-05-07 08:09 | 51.53115 | 5.68590 | 34050 ft | 443 kts | 322° |
| 2026-05-07 08:10 | 51.57972 | 5.62519 | 34050 ft | 443 kts | 322° |
| 2026-05-07 08:10 | 51.62811 | 5.56449 | 34051 ft | 443 kts | 322° |
| 2026-05-07 08:11 | 51.67661 | 5.50348 | 34052 ft | 443 kts | 322° |
| 2026-05-07 08:11 | 51.72480 | 5.44277 | 34053 ft | 443 kts | 322° |
| 2026-05-07 08:12 | 51.77334 | 5.38147 | 34053 ft | 443 kts | 321° |
| 2026-05-07 08:12 | 51.82184 | 5.31997 | 34060 ft | 443 kts | 321° |
| 2026-05-07 08:13 | 51.87020 | 5.25839 | 34061 ft | 442 kts | 321° |
| 2026-05-07 08:13 | 51.91849 | 5.19689 | 34059 ft | 442 kts | 321° |
| 2026-05-07 08:14 | 51.96671 | 5.13532 | 34055 ft | 442 kts | 321° |
| 2026-05-07 08:14 | 52.01483 | 5.07372 | 34054 ft | 442 kts | 321° |
| 2026-05-07 08:15 | 52.06280 | 5.01221 | 34060 ft | 441 kts | 321° |
| 2026-05-07 08:15 | 52.11048 | 4.95079 | 34065 ft | 441 kts | 321° |
| 2026-05-07 08:16 | 52.15824 | 4.88903 | 34068 ft | 440 kts | 321° |
| 2026-05-07 08:16 | 52.20573 | 4.82737 | 34071 ft | 440 kts | 321° |
| 2026-05-07 08:17 | 52.25363 | 4.76509 | 34069 ft | 439 kts | 321° |
| 2026-05-07 08:17 | 52.29320 | 4.71349 | 34067 ft | 439 kts | 321° |
| 2026-05-07 08:18 | 52.34076 | 4.65143 | 34066 ft | 439 kts | 321° |
| 2026-05-07 08:18 | 52.38798 | 4.58969 | 34067 ft | 439 kts | 321° |
| 2026-05-07 08:19 | 52.43572 | 4.52699 | 34066 ft | 439 kts | 321° |
| 2026-05-07 08:19 | 52.48330 | 4.46426 | 34068 ft | 439 kts | 321° |
| 2026-05-07 08:20 | 52.53012 | 4.40236 | 34070 ft | 439 kts | 321° |
| 2026-05-07 08:20 | 52.57835 | 4.33848 | 34071 ft | 439 kts | 321° |
| 2026-05-07 08:21 | 52.62584 | 4.27537 | 34073 ft | 439 kts | 321° |
| 2026-05-07 08:21 | 52.67301 | 4.21249 | 34077 ft | 439 kts | 321° |
| 2026-05-07 08:22 | 52.72051 | 4.14906 | 34080 ft | 439 kts | 321° |
| 2026-05-07 08:22 | 52.76801 | 4.08541 | 34080 ft | 439 kts | 321° |
| 2026-05-07 08:23 | 52.81539 | 4.02158 | 34085 ft | 439 kts | 321° |
| 2026-05-07 08:23 | 52.86273 | 3.95763 | 34088 ft | 439 kts | 321° |
| 2026-05-07 08:24 | 52.91001 | 3.89359 | 34093 ft | 439 kts | 321° |
| 2026-05-07 08:24 | 52.95734 | 3.82958 | 34098 ft | 439 kts | 321° |
| 2026-05-07 08:25 | 53.00460 | 3.76538 | 34102 ft | 439 kts | 321° |
| 2026-05-07 08:25 | 53.05177 | 3.70106 | 34104 ft | 438 kts | 321° |
| 2026-05-07 08:26 | 53.12227 | 3.60436 | 34105 ft | 438 kts | 321° |
| 2026-05-07 08:26 | 53.16893 | 3.54029 | 34107 ft | 438 kts | 321° |
| 2026-05-07 08:27 | 53.21594 | 3.47561 | 34111 ft | 438 kts | 321° |
| 2026-05-07 08:27 | 53.25879 | 3.40365 | 34110 ft | 439 kts | 307° |
| 2026-05-07 08:28 | 53.29216 | 3.31797 | 34103 ft | 440 kts | 304° |
| 2026-05-07 08:28 | 53.32537 | 3.23194 | 34102 ft | 440 kts | 304° |
| 2026-05-07 08:29 | 53.35851 | 3.14579 | 34103 ft | 440 kts | 304° |
| 2026-05-07 08:29 | 53.39153 | 3.05939 | 34104 ft | 440 kts | 304° |
| 2026-05-07 08:30 | 53.42445 | 2.97282 | 34103 ft | 441 kts | 304° |
| 2026-05-07 08:30 | 53.45734 | 2.88604 | 34102 ft | 441 kts | 304° |
| 2026-05-07 08:31 | 53.49016 | 2.79930 | 34100 ft | 440 kts | 304° |
| 2026-05-07 08:31 | 53.52270 | 2.71295 | 34097 ft | 440 kts | 304° |
| 2026-05-07 08:32 | 53.55540 | 2.62583 | 34096 ft | 440 kts | 304° |
| 2026-05-07 08:32 | 53.58806 | 2.53857 | 34097 ft | 441 kts | 304° |
| 2026-05-07 08:33 | 53.62070 | 2.45121 | 34097 ft | 441 kts | 304° |
| 2026-05-07 08:33 | 53.65330 | 2.36345 | 34100 ft | 442 kts | 304° |
| 2026-05-07 08:34 | 53.68591 | 2.27554 | 34102 ft | 442 kts | 304° |
| 2026-05-07 08:34 | 53.71843 | 2.18760 | 34103 ft | 442 kts | 304° |
| 2026-05-07 08:35 | 53.75094 | 2.09938 | 34103 ft | 442 kts | 304° |
| 2026-05-07 08:35 | 53.78335 | 2.01104 | 34104 ft | 442 kts | 304° |
| 2026-05-07 08:36 | 53.81569 | 1.92261 | 34103 ft | 442 kts | 304° |
| 2026-05-07 08:36 | 53.84794 | 1.83407 | 34102 ft | 442 kts | 303° |
| 2026-05-07 08:37 | 53.87986 | 1.74595 | 34101 ft | 442 kts | 303° |
| 2026-05-07 08:37 | 53.91199 | 1.65701 | 34100 ft | 442 kts | 303° |
| 2026-05-07 08:38 | 53.94409 | 1.56790 | 34100 ft | 442 kts | 303° |
| 2026-05-07 08:38 | 53.97612 | 1.47875 | 34100 ft | 442 kts | 303° |
| 2026-05-07 08:39 | 54.00801 | 1.38938 | 34099 ft | 442 kts | 303° |
| 2026-05-07 08:39 | 54.03989 | 1.29974 | 34097 ft | 442 kts | 303° |
| 2026-05-07 08:40 | 54.07165 | 1.21034 | 34107 ft | 441 kts | 303° |
| 2026-05-07 08:40 | 54.10315 | 1.12149 | 34110 ft | 440 kts | 302° |
| 2026-05-07 08:41 | 54.13466 | 1.03214 | 34108 ft | 440 kts | 302° |
| 2026-05-07 08:41 | 54.16609 | 0.94270 | 34101 ft | 439 kts | 302° |
| 2026-05-07 08:42 | 54.19745 | 0.85315 | 34089 ft | 439 kts | 302° |
| 2026-05-07 08:42 | 54.22868 | 0.76351 | 34088 ft | 439 kts | 302° |
| 2026-05-07 08:43 | 54.25992 | 0.67365 | 34084 ft | 439 kts | 302° |
| 2026-05-07 08:43 | 54.29105 | 0.58369 | 34080 ft | 439 kts | 302° |
| 2026-05-07 08:44 | 54.32210 | 0.49344 | 34077 ft | 440 kts | 302° |
| 2026-05-07 08:44 | 54.35292 | 0.40363 | 34076 ft | 440 kts | 302° |
| 2026-05-07 08:45 | 54.38392 | 0.31312 | 34074 ft | 440 kts | 302° |
| 2026-05-07 08:45 | 54.41493 | 0.22236 | 34076 ft | 441 kts | 301° |
| 2026-05-07 08:46 | 54.44580 | 0.13137 | 34078 ft | 441 kts | 301° |
| 2026-05-07 08:46 | 54.47666 | 0.04023 | 34078 ft | 441 kts | 301° |
| 2026-05-07 08:47 | 54.50742 | -0.05104 | 34081 ft | 441 kts | 301° |
| 2026-05-07 08:47 | 54.53809 | -0.14230 | 34099 ft | 439 kts | 300° |
| 2026-05-07 08:48 | 54.56859 | -0.23328 | 34099 ft | 437 kts | 300° |
| 2026-05-07 08:48 | 54.59884 | -0.32405 | 34108 ft | 436 kts | 300° |
| 2026-05-07 08:49 | 54.62905 | -0.41473 | 34100 ft | 435 kts | 300° |
| 2026-05-07 08:49 | 54.65908 | -0.50547 | 34093 ft | 435 kts | 300° |
| 2026-05-07 08:50 | 54.68893 | -0.59634 | 34083 ft | 435 kts | 299° |
| 2026-05-07 08:50 | 54.71860 | -0.68668 | 34078 ft | 434 kts | 300° |
| 2026-05-07 08:51 | 54.74841 | -0.77755 | 34073 ft | 434 kts | 299° |
| 2026-05-07 08:51 | 54.77811 | -0.86877 | 34069 ft | 434 kts | 299° |
| 2026-05-07 08:52 | 54.80770 | -0.95993 | 34068 ft | 434 kts | 299° |
| 2026-05-07 08:52 | 54.83731 | -1.05124 | 34066 ft | 434 kts | 299° |
| 2026-05-07 08:53 | 54.86680 | -1.14278 | 34067 ft | 434 kts | 299° |
| 2026-05-07 08:53 | 54.89627 | -1.23445 | 34066 ft | 434 kts | 299° |
| 2026-05-07 08:54 | 54.92567 | -1.32619 | 34065 ft | 434 kts | 299° |
| 2026-05-07 08:54 | 54.95466 | -1.41754 | 33875 ft | 434 kts | 298° |
| 2026-05-07 08:55 | 54.96924 | -1.46355 | 33625 ft | 434 kts | 298° |
| 2026-05-07 08:55 | 54.98383 | -1.50960 | 33294 ft | 434 kts | 298° |
| 2026-05-07 08:55 | 54.99854 | -1.55595 | 32246 ft | 441 kts | 298° |
| 2026-05-07 08:55 | 55.01350 | -1.60308 | 31271 ft | 445 kts | 298° |
| 2026-05-07 08:56 | 55.02851 | -1.65057 | 30301 ft | 448 kts | 298° |
| 2026-05-07 08:56 | 55.04356 | -1.69838 | 29423 ft | 449 kts | 298° |
| 2026-05-07 08:56 | 55.05839 | -1.74560 | 28858 ft | 441 kts | 298° |
| 2026-05-07 08:56 | 55.07300 | -1.79239 | 28203 ft | 436 kts | 297° |
| 2026-05-07 08:57 | 55.08723 | -1.83795 | 27566 ft | 431 kts | 297° |
| 2026-05-07 08:57 | 55.10147 | -1.88358 | 26942 ft | 425 kts | 297° |
| 2026-05-07 08:57 | 55.11553 | -1.92872 | 26324 ft | 420 kts | 297° |
| 2026-05-07 08:57 | 55.12948 | -1.97327 | 25677 ft | 416 kts | 298° |
| 2026-05-07 08:58 | 55.14372 | -2.01716 | 25018 ft | 413 kts | 299° |
| 2026-05-07 08:58 | 55.15810 | -2.06040 | 24356 ft | 410 kts | 299° |
| 2026-05-07 08:58 | 55.17248 | -2.10318 | 23716 ft | 406 kts | 299° |
| 2026-05-07 08:58 | 55.18670 | -2.14564 | 23069 ft | 402 kts | 299° |
| 2026-05-07 08:59 | 55.20068 | -2.18788 | 22424 ft | 400 kts | 298° |
| 2026-05-07 08:59 | 55.21447 | -2.22984 | 21798 ft | 396 kts | 298° |
| 2026-05-07 08:59 | 55.22813 | -2.27158 | 21308 ft | 390 kts | 298° |
| 2026-05-07 08:59 | 55.24142 | -2.31234 | 20933 ft | 381 kts | 298° |
| 2026-05-07 09:00 | 55.25439 | -2.35229 | 20557 ft | 373 kts | 298° |
| 2026-05-07 09:00 | 55.26712 | -2.39151 | 20183 ft | 366 kts | 298° |
| 2026-05-07 09:00 | 55.27951 | -2.42975 | 19986 ft | 354 kts | 298° |
| 2026-05-07 09:00 | 55.29150 | -2.46677 | 19665 ft | 347 kts | 297° |
| 2026-05-07 09:01 | 55.30307 | -2.50243 | 19530 ft | 325 kts | 297° |
| 2026-05-07 09:01 | 55.31404 | -2.53615 | 19094 ft | 312 kts | 297° |
| 2026-05-07 09:01 | 55.32454 | -2.56856 | 18508 ft | 307 kts | 297° |
| 2026-05-07 09:01 | 55.33501 | -2.60099 | 17870 ft | 304 kts | 297° |
| 2026-05-07 09:02 | 55.34551 | -2.63362 | 17211 ft | 302 kts | 297° |
| 2026-05-07 09:02 | 55.35563 | -2.66515 | 16589 ft | 299 kts | 297° |
| 2026-05-07 09:02 | 55.36579 | -2.69691 | 15965 ft | 297 kts | 297° |
| 2026-05-07 09:02 | 55.37589 | -2.72848 | 15343 ft | 295 kts | 297° |
| 2026-05-07 09:03 | 55.38605 | -2.76022 | 14718 ft | 293 kts | 297° |
| 2026-05-07 09:03 | 55.39586 | -2.79093 | 14108 ft | 291 kts | 297° |
| 2026-05-07 09:03 | 55.40577 | -2.82197 | 13493 ft | 289 kts | 297° |
| 2026-05-07 09:03 | 55.41560 | -2.85277 | 12889 ft | 288 kts | 297° |
| 2026-05-07 09:04 | 55.42565 | -2.88309 | 12270 ft | 287 kts | 304° |
| 2026-05-07 09:04 | 55.44004 | -2.90724 | 11662 ft | 289 kts | 326° |
| 2026-05-07 09:04 | 55.45799 | -2.92321 | 11014 ft | 289 kts | 332° |
| 2026-05-07 09:04 | 55.47655 | -2.93863 | 10591 ft | 304 kts | 332° |
| 2026-05-07 09:05 | 55.49572 | -2.95446 | 10349 ft | 300 kts | 333° |
| 2026-05-07 09:05 | 55.51430 | -2.96976 | 10188 ft | 292 kts | 333° |
| 2026-05-07 09:05 | 55.53260 | -2.98486 | 9933 ft | 290 kts | 333° |
| 2026-05-07 09:05 | 55.55092 | -2.99954 | 9812 ft | 290 kts | 338° |
| 2026-05-07 09:06 | 55.57080 | -3.00623 | 9558 ft | 293 kts | 353° |
| 2026-05-07 09:06 | 55.59107 | -3.00895 | 9182 ft | 292 kts | 354° |
| 2026-05-07 09:06 | 55.61133 | -3.01129 | 8806 ft | 291 kts | 355° |
| 2026-05-07 09:06 | 55.63145 | -3.01370 | 8431 ft | 289 kts | 355° |
| 2026-05-07 09:07 | 55.64475 | -3.01530 | 8175 ft | 289 kts | 355° |
| 2026-05-07 09:07 | 55.66461 | -3.01770 | 7971 ft | 284 kts | 355° |
| 2026-05-07 09:07 | 55.69009 | -3.02070 | 7883 ft | 270 kts | 355° |
| 2026-05-07 09:07 | 55.70862 | -3.02286 | 7631 ft | 264 kts | 355° |
| 2026-05-07 09:08 | 55.72677 | -3.02495 | 7383 ft | 259 kts | 355° |
| 2026-05-07 09:08 | 55.73888 | -3.02635 | 7219 ft | 255 kts | 355° |
| 2026-05-07 09:08 | 55.75657 | -3.02837 | 6851 ft | 255 kts | 355° |
| 2026-05-07 09:08 | 55.77412 | -3.03038 | 6461 ft | 256 kts | 355° |
| 2026-05-07 09:09 | 55.79185 | -3.03238 | 6100 ft | 255 kts | 355° |
| 2026-05-07 09:09 | 55.80954 | -3.03436 | 5735 ft | 255 kts | 355° |
| 2026-05-07 09:09 | 55.82714 | -3.03633 | 5490 ft | 249 kts | 355° |
| 2026-05-07 09:09 | 55.84421 | -3.03822 | 5267 ft | 243 kts | 354° |
| 2026-05-07 09:10 | 55.86109 | -3.04007 | 4965 ft | 243 kts | 355° |
| 2026-05-07 09:10 | 55.87771 | -3.04193 | 4784 ft | 235 kts | 355° |
| 2026-05-07 09:10 | 55.89392 | -3.04375 | 4473 ft | 232 kts | 355° |
| 2026-05-07 09:10 | 55.91010 | -3.04561 | 4147 ft | 233 kts | 355° |
| 2026-05-07 09:11 | 55.92616 | -3.04749 | 4009 ft | 232 kts | 355° |
| 2026-05-07 09:11 | 55.94234 | -3.04946 | 3962 ft | 233 kts | 355° |
| 2026-05-07 09:11 | 55.95849 | -3.05146 | 3724 ft | 232 kts | 354° |
| 2026-05-07 09:11 | 55.97467 | -3.05348 | 3501 ft | 233 kts | 354° |
| 2026-05-07 09:12 | 55.99065 | -3.05549 | 3276 ft | 232 kts | 355° |
| 2026-05-07 09:12 | 56.00654 | -3.05750 | 3149 ft | 225 kts | 355° |
| 2026-05-07 09:12 | 56.02190 | -3.05951 | 3048 ft | 218 kts | 353° |
| 2026-05-07 09:12 | 56.03555 | -3.06852 | 3003 ft | 206 kts | 313° |
| 2026-05-07 09:13 | 56.04157 | -3.09013 | 3012 ft | 192 kts | 264° |
| 2026-05-07 09:13 | 56.03758 | -3.11117 | 3035 ft | 171 kts | 233° |
| 2026-05-07 09:13 | 56.03179 | -3.12882 | 2937 ft | 160 kts | 236° |
| 2026-05-07 09:13 | 56.02630 | -3.14567 | 2778 ft | 155 kts | 235° |
| 2026-05-07 09:14 | 56.02086 | -3.16205 | 2585 ft | 151 kts | 236° |
| 2026-05-07 09:14 | 56.01551 | -3.17806 | 2404 ft | 149 kts | 236° |
| 2026-05-07 09:14 | 56.01024 | -3.19377 | 2208 ft | 144 kts | 236° |
| 2026-05-07 09:14 | 56.00519 | -3.20879 | 2025 ft | 139 kts | 237° |
| 2026-05-07 09:15 | 56.00036 | -3.22317 | 1848 ft | 133 kts | 237° |
| 2026-05-07 09:15 | 55.99564 | -3.23719 | 1676 ft | 131 kts | 238° |
| 2026-05-07 09:15 | 55.99095 | -3.25115 | 1484 ft | 131 kts | 238° |
| 2026-05-07 09:15 | 55.98623 | -3.26515 | 1317 ft | 131 kts | 238° |
| 2026-05-07 09:16 | 55.98150 | -3.27923 | 1131 ft | 132 kts | 239° |
| 2026-05-07 09:16 | 55.97677 | -3.29324 | 963 ft | 131 kts | 238° |
| 2026-05-07 09:16 | 55.97202 | -3.30729 | 791 ft | 133 kts | 239° |
| 2026-05-07 09:16 | 55.96728 | -3.32132 | 611 ft | 134 kts | 239° |
| 2026-05-07 09:17 | 55.96249 | -3.33547 | 429 ft | 133 kts | 239° |
| 2026-05-07 09:17 | 55.95768 | -3.34973 | 258 ft | 135 kts | 239° |
| 2026-05-07 09:17 | 55.95288 | -3.36402 | 112 ft | 128 kts | 238° |
| 2026-05-07 09:17 | 55.94909 | -3.37517 | 111 ft | 83 kts | 239° |
| 2026-05-07 09:18 | 55.94740 | -3.38017 | 114 ft | 13 kts | 239° |
| 2026-05-07 09:18 | 55.94689 | -3.38054 | 114 ft | 8 kts | 154° |
| 2026-05-07 09:18 | 55.94649 | -3.38011 | 115 ft | 5 kts | 148° |
| 2026-05-07 09:18 | 55.94625 | -3.37984 | 116 ft | 3 kts | 149° |
| 2026-05-07 09:19 | 55.94594 | -3.37946 | 113 ft | 7 kts | 133° |
| 2026-05-07 09:19 | 55.94594 | -3.37876 | 115 ft | 5 kts | 71° |
| 2026-05-07 09:19 | 55.94611 | -3.37825 | 113 ft | 4 kts | 59° |
| 2026-05-07 09:19 | 55.94626 | -3.37782 | 115 ft | 5 kts | 58° |
| 2026-05-07 09:20 | 55.94655 | -3.37695 | 113 ft | 11 kts | 58° |
| 2026-05-07 09:20 | 55.94707 | -3.37543 | 115 ft | 18 kts | 59° |
| 2026-05-07 09:20 | 55.94772 | -3.37351 | 113 ft | 18 kts | 58° |
| 2026-05-07 09:20 | 55.94832 | -3.37171 | 113 ft | 16 kts | 59° |
| 2026-05-07 09:21 | 55.94887 | -3.37009 | 114 ft | 14 kts | 59° |
| 2026-05-07 09:21 | 55.94929 | -3.36881 | 116 ft | 8 kts | 69° |
| 2026-05-07 09:21 | 55.94905 | -3.36816 | 116 ft | 6 kts | 140° |
| 2026-05-07 09:21 | 55.94874 | -3.36783 | 115 ft | 5 kts | 160° |
| 2026-05-07 09:22 | 55.94833 | -3.36779 | 116 ft | 7 kts | 179° |
| 2026-05-07 09:22 | 55.94788 | -3.36776 | 114 ft | 8 kts | 173° |
| 2026-05-07 09:22 | 55.94734 | -3.36738 | 114 ft | 8 kts | 171° |
| 2026-05-07 09:22 | 55.94684 | -3.36736 | 116 ft | 7 kts | 179° |
| 2026-05-07 09:23 | 55.94642 | -3.36734 | 116 ft | 5 kts | 179° |
| 2026-05-07 09:23 | 55.94608 | -3.36734 | 113 ft | 4 kts | 179° |
| 2026-05-07 09:23 | 55.94578 | -3.36731 | 115 ft | 5 kts | 169° |
| 2026-05-07 09:23 | 55.94571 | -3.36678 | 116 ft | 5 kts | 91° |
| 2026-05-07 09:24 | 55.94571 | -3.36629 | 116 ft | 2 kts | 89° |
| 2026-05-07 09:24 | 55.94571 | -3.36623 | 116 ft | 0 kts | 89° |